Time;durP1;ratioP1;P1;durP2;ratioP2;P2;SDS_P1;SDS_P2;PMS_P1;PMS_P2;Temp;Humidity;BMP_temperature;BMP_pressure;BME280_temperature;BME280_humidity;BME280_pressure;Samples;Min_cycle;Max_cycle;Signal;HPM_P1;HPM_P2
2023/08/06 00:00:25;;;;;;;7.30;6.68;;;14.80;99.90;;;;;;5032937;28;20102;-63
2023/08/06 00:02:51;;;;;;;6.82;6.22;;;14.60;99.90;;;;;;5032662;28;20069;-64
2023/08/06 00:05:23;;;;;;;9.82;6.95;;;14.70;99.90;;;;;;5032519;28;20092;-63
2023/08/06 00:07:49;;;;;;;7.57;6.82;;;14.50;99.90;;;;;;5038955;28;20235;-65
2023/08/06 00:10:15;;;;;;;7.57;6.78;;;14.60;99.90;;;;;;5015886;28;20108;-63
2023/08/06 00:12:41;;;;;;;7.95;7.15;;;14.40;99.90;;;;;;5024027;28;20213;-64
2023/08/06 00:15:07;;;;;;;7.43;6.70;;;14.50;99.90;;;;;;5032425;28;20107;-64
2023/08/06 00:17:34;;;;;;;9.85;7.30;;;14.40;99.90;;;;;;5033271;28;20051;-63
2023/08/06 00:20:04;;;;;;;7.53;5.88;;;14.20;99.90;;;;;;5034036;28;20037;-64
2023/08/06 00:22:31;;;;;;;6.78;6.10;;;14.10;99.90;;;;;;5031547;28;20201;-63
2023/08/06 00:24:57;;;;;;;6.53;5.72;;;14.10;99.90;;;;;;5016543;28;20218;-64
2023/08/06 00:27:23;;;;;;;6.85;6.05;;;14.20;99.90;;;;;;5035244;28;20040;-64
2023/08/06 00:29:49;;;;;;;7.35;6.75;;;14.10;99.90;;;;;;5015509;28;20062;-64
2023/08/06 00:32:14;;;;;;;6.50;5.90;;;14.10;99.90;;;;;;5035107;28;20815;-64
2023/08/06 00:34:40;;;;;;;8.07;6.70;;;14.10;99.90;;;;;;5017015;28;20399;-64
2023/08/06 00:37:06;;;;;;;8.02;6.57;;;14.10;99.90;;;;;;5013792;28;20414;-64
2023/08/06 00:39:31;;;;;;;7.82;6.97;;;14.00;99.90;;;;;;5015829;28;20044;-65
2023/08/06 00:41:58;;;;;;;8.32;7.53;;;13.90;99.90;;;;;;5034411;28;20041;-64
2023/08/06 00:44:24;;;;;;;10.95;7.70;;;14.10;99.90;;;;;;5033975;28;20302;-64
2023/08/06 00:46:50;;;;;;;8.23;7.53;;;14.10;99.90;;;;;;5031209;28;20094;-64
2023/08/06 00:49:16;;;;;;;8.55;7.53;;;14.20;99.90;;;;;;5034572;28;20037;-64
2023/08/06 00:51:42;;;;;;;9.13;8.20;;;14.10;99.90;;;;;;5033134;28;20384;-63
2023/08/06 00:54:09;;;;;;;10.15;8.15;;;14.20;99.90;;;;;;5031087;28;20040;-64
2023/08/06 00:56:36;;;;;;;9.52;8.57;;;14.30;99.90;;;;;;5047475;28;20040;-64
2023/08/06 00:59:04;;;;;;;9.18;8.30;;;14.20;99.90;;;;;;5015384;28;20317;-63
2023/08/06 01:01:30;;;;;;;9.05;8.07;;;14.30;99.90;;;;;;5034215;28;20044;-64
2023/08/06 01:03:56;;;;;;;8.15;7.38;;;14.20;99.90;;;;;;5027480;28;20173;-64
2023/08/06 01:06:51;;;;;;;9.07;8.18;;;14.30;99.90;;;;;;5035990;28;20236;-63
2023/08/06 01:09:48;;;;;;;10.10;8.05;;;14.30;99.90;;;;;;5033188;28;20055;-64
2023/08/06 01:13:05;;;;;;;9.50;8.50;;;14.40;99.90;;;;;;5037718;28;21141;-63
2023/08/06 01:15:41;;;;;;;9.50;8.50;;;14.40;99.90;;;;;;5009931;28;20235;-64
2023/08/06 01:18:07;;;;;;;10.30;8.68;;;14.20;99.90;;;;;;5034649;28;20044;-64
2023/08/06 01:20:33;;;;;;;9.48;8.57;;;14.20;99.90;;;;;;5035221;28;20123;-65
2023/08/06 01:22:58;;;;;;;10.63;8.45;;;14.30;99.90;;;;;;5031350;28;20442;-65
2023/08/06 01:25:35;;;;;;;10.73;8.70;;;14.40;99.90;;;;;;5000641;28;20520;-63
2023/08/06 01:28:17;;;;;;;11.15;9.10;;;14.50;99.90;;;;;;5016856;28;20152;-63
2023/08/06 01:30:43;;;;;;;9.70;8.80;;;14.40;99.90;;;;;;5033739;28;20051;-63
2023/08/06 01:33:16;;;;;;;12.88;9.63;;;14.40;99.90;;;;;;5033091;28;20037;-64
2023/08/06 01:35:43;;;;;;;10.73;9.53;;;14.40;99.90;;;;;;5044418;28;20126;-64
2023/08/06 01:38:08;;;;;;;12.27;10.07;;;14.30;99.90;;;;;;5031331;28;20048;-64
2023/08/06 01:40:35;;;;;;;10.07;9.07;;;14.30;99.90;;;;;;5035826;28;20072;-65
2023/08/06 01:43:00;;;;;;;10.60;9.23;;;14.40;99.90;;;;;;5033406;28;20523;-64
2023/08/06 01:45:26;;;;;;;11.57;10.45;;;14.50;99.90;;;;;;5030255;28;20082;-64
2023/08/06 01:47:52;;;;;;;11.68;10.45;;;14.50;99.90;;;;;;5016675;28;20044;-64
2023/08/06 01:50:17;;;;;;;11.25;10.10;;;14.30;99.90;;;;;;5029296;28;20514;-64
2023/08/06 01:52:43;;;;;;;11.57;10.43;;;14.40;99.90;;;;;;5035230;28;20561;-64
2023/08/06 01:55:09;;;;;;;12.45;11.05;;;14.40;99.90;;;;;;5020412;28;20036;-64
2023/08/06 01:57:34;;;;;;;13.13;11.50;;;14.30;99.90;;;;;;5035781;28;20191;-64
2023/08/06 02:00:00;;;;;;;12.18;10.93;;;14.20;99.90;;;;;;5039875;28;20059;-63
2023/08/06 02:02:26;;;;;;;11.93;10.23;;;14.30;99.90;;;;;;5037967;28;20577;-63
2023/08/06 02:04:51;;;;;;;12.80;11.50;;;14.10;99.90;;;;;;5040249;28;20033;-64
2023/08/06 02:07:17;;;;;;;12.23;10.93;;;14.10;99.90;;;;;;5034162;28;20399;-64
2023/08/06 02:09:43;;;;;;;11.77;10.48;;;14.20;99.90;;;;;;5019921;28;20306;-63
2023/08/06 02:12:08;;;;;;;13.43;11.27;;;14.20;99.90;;;;;;5038368;28;20099;-64
2023/08/06 02:14:35;;;;;;;11.55;10.45;;;14.10;99.90;;;;;;5036451;28;20944;-63
2023/08/06 02:17:00;;;;;;;15.60;11.43;;;14.00;99.90;;;;;;5023964;28;20148;-64
2023/08/06 02:19:26;;;;;;;14.05;10.60;;;14.00;99.90;;;;;;5034037;28;20243;-64
2023/08/06 02:21:51;;;;;;;13.90;11.43;;;14.10;99.90;;;;;;5018624;28;20124;-65
2023/08/06 02:24:17;;;;;;;14.73;11.82;;;14.00;99.90;;;;;;5021517;28;20131;-64
2023/08/06 02:26:43;;;;;;;14.10;11.50;;;14.00;99.90;;;;;;5037888;28;20045;-65
2023/08/06 02:29:08;;;;;;;13.95;11.18;;;14.10;99.90;;;;;;5034348;28;20044;-65
2023/08/06 02:31:34;;;;;;;15.23;12.35;;;14.10;99.90;;;;;;5038169;28;20220;-63
2023/08/06 02:34:00;;;;;;;12.95;11.55;;;14.00;99.90;;;;;;5034581;28;20037;-64
2023/08/06 02:36:29;;;;;;;14.02;12.52;;;14.10;99.90;;;;;;5023826;28;20822;-64
2023/08/06 02:38:55;;;;;;;16.58;13.27;;;14.00;99.90;;;;;;5018595;28;20063;-64
2023/08/06 02:41:20;;;;;;;15.70;14.05;;;13.90;99.90;;;;;;5038644;28;20145;-66
2023/08/06 02:43:46;;;;;;;18.58;13.90;;;14.00;99.90;;;;;;5022819;28;20044;-64
2023/08/06 02:46:12;;;;;;;16.42;14.55;;;13.90;99.90;;;;;;5032900;28;20342;-64
2023/08/06 02:48:37;;;;;;;16.67;14.90;;;14.00;99.90;;;;;;5020496;28;20436;-63
2023/08/06 02:51:03;;;;;;;16.75;14.57;;;14.10;99.90;;;;;;5039864;28;20123;-63
2023/08/06 02:53:29;;;;;;;14.15;12.70;;;13.90;99.90;;;;;;5033770;28;20434;-64
2023/08/06 02:55:55;;;;;;;18.67;14.93;;;13.90;99.90;;;;;;5034625;28;20725;-64
2023/08/06 02:58:22;;;;;;;15.07;13.48;;;14.20;99.90;;;;;;5020915;28;20456;-63
2023/08/06 03:01:05;;;;;;;16.23;12.60;;;14.10;99.90;;;;;;5033603;28;20033;-63
2023/08/06 03:03:31;;;;;;;14.50;12.98;;;14.00;99.90;;;;;;5037451;28;20867;-64
2023/08/06 03:05:57;;;;;;;13.82;12.48;;;14.00;99.90;;;;;;5021049;28;20079;-63
2023/08/06 03:08:23;;;;;;;16.63;13.65;;;14.20;99.90;;;;;;5035171;28;20430;-64
2023/08/06 03:10:50;;;;;;;14.80;12.75;;;14.10;99.90;;;;;;5035473;28;20044;-63
2023/08/06 03:13:16;;;;;;;16.73;12.77;;;14.10;99.90;;;;;;5034496;28;20362;-64
2023/08/06 03:15:43;;;;;;;13.57;12.20;;;14.30;99.90;;;;;;5019417;28;20123;-64
2023/08/06 03:18:08;;;;;;;12.25;10.55;;;14.10;99.90;;;;;;5035888;28;20063;-65
2023/08/06 03:20:34;;;;;;;11.95;10.75;;;14.30;99.90;;;;;;5019124;28;20064;-64
2023/08/06 03:23:00;;;;;;;13.13;11.80;;;14.20;99.90;;;;;;5018979;28;20292;-64
2023/08/06 03:25:25;;;;;;;11.68;10.48;;;14.30;99.90;;;;;;5018489;28;20123;-64
2023/08/06 03:27:51;;;;;;;13.48;10.98;;;14.20;99.90;;;;;;5035974;28;20037;-64
2023/08/06 03:30:17;;;;;;;13.02;11.00;;;14.30;99.90;;;;;;5030922;28;20051;-64
2023/08/06 03:32:43;;;;;;;11.27;9.35;;;14.30;99.90;;;;;;5038634;28;20037;-64
2023/08/06 03:35:08;;;;;;;10.75;9.68;;;14.20;99.90;;;;;;5031897;28;20056;-65
2023/08/06 03:37:34;;;;;;;10.75;9.75;;;14.30;99.90;;;;;;5038337;28;20245;-64
2023/08/06 03:40:00;;;;;;;10.27;9.20;;;14.30;99.90;;;;;;5036800;28;20029;-64
2023/08/06 03:42:25;;;;;;;10.45;9.23;;;14.40;99.90;;;;;;5033563;28;20036;-65
2023/08/06 03:44:51;;;;;;;12.15;8.70;;;14.50;99.90;;;;;;5034788;28;20045;-64
2023/08/06 03:47:17;;;;;;;9.27;8.30;;;14.50;99.90;;;;;;5033432;28;20033;-65
2023/08/06 03:49:43;;;;;;;10.07;8.90;;;14.60;99.90;;;;;;5019382;28;20103;-64
2023/08/06 03:52:09;;;;;;;10.35;9.13;;;14.50;99.90;;;;;;5036916;28;20538;-64
2023/08/06 03:54:34;;;;;;;10.02;9.13;;;14.40;99.90;;;;;;5037205;28;20366;-64
2023/08/06 03:57:00;;;;;;;10.15;9.07;;;14.70;99.90;;;;;;5002532;28;20346;-64
2023/08/06 03:59:26;;;;;;;10.68;9.20;;;14.70;99.90;;;;;;5037448;28;20297;-64
2023/08/06 04:01:51;;;;;;;10.35;9.07;;;14.60;99.90;;;;;;5017351;28;20068;-64
2023/08/06 04:04:17;;;;;;;12.65;9.40;;;14.70;99.90;;;;;;5000994;28;20033;-65
2023/08/06 04:06:42;;;;;;;12.27;10.93;;;14.60;99.90;;;;;;5033158;28;20040;-64
2023/08/06 04:09:08;;;;;;;10.57;9.55;;;14.60;99.90;;;;;;5016584;28;20292;-65
2023/08/06 04:11:34;;;;;;;11.20;10.02;;;14.60;99.90;;;;;;5033574;28;20060;-65
2023/08/06 04:13:59;;;;;;;11.93;10.60;;;14.80;99.90;;;;;;5021170;28;20144;-64
2023/08/06 04:16:26;;;;;;;11.18;10.18;;;14.80;99.90;;;;;;5030961;28;20452;-65
2023/08/06 04:18:53;;;;;;;10.55;9.50;;;14.90;99.90;;;;;;5033211;28;20485;-64
2023/08/06 04:21:19;;;;;;;12.07;10.98;;;14.90;99.90;;;;;;5019048;28;20133;-63
2023/08/06 04:23:45;;;;;;;13.52;12.07;;;14.90;99.90;;;;;;5015227;28;20049;-63
2023/08/06 04:26:10;;;;;;;12.07;10.85;;;14.90;99.90;;;;;;5035112;28;20065;-64
2023/08/06 04:28:36;;;;;;;11.50;10.38;;;14.80;99.90;;;;;;5017647;28;20044;-64
2023/08/06 04:31:02;;;;;;;13.27;11.90;;;15.00;99.90;;;;;;5031326;28;20040;-65
2023/08/06 04:33:27;;;;;;;12.10;10.85;;;14.80;99.90;;;;;;5033227;28;20045;-64
2023/08/06 04:35:57;;;;;;;11.95;10.75;;;14.90;99.90;;;;;;5017238;28;20528;-65
2023/08/06 04:38:25;;;;;;;10.98;9.93;;;14.70;99.90;;;;;;5033618;28;20390;-65
2023/08/06 04:40:50;;;;;;;11.88;10.65;;;14.90;99.90;;;;;;5034663;28;20294;-64
2023/08/06 04:43:16;;;;;;;11.82;10.70;;;14.80;99.90;;;;;;5033968;28;20152;-64
2023/08/06 04:45:49;;;;;;;12.07;10.88;;;15.00;99.90;;;;;;5034879;28;20549;-65
2023/08/06 04:48:15;;;;;;;11.55;10.32;;;14.80;99.90;;;;;;5036015;28;20045;-64
2023/08/06 04:50:48;;;;;;;14.65;11.73;;;14.90;99.90;;;;;;5015193;28;20056;-64
2023/08/06 04:53:14;;;;;;;10.48;9.35;;;15.00;99.90;;;;;;5020211;28;20497;-65
2023/08/06 04:55:40;;;;;;;12.40;9.80;;;15.00;99.90;;;;;;5022804;28;20395;-64
2023/08/06 04:58:08;;;;;;;11.07;9.48;;;15.00;99.90;;;;;;5033747;28;20037;-64
2023/08/06 05:00:34;;;;;;;10.20;8.55;;;15.00;99.90;;;;;;5033720;28;20080;-64
2023/08/06 05:03:02;;;;;;;8.98;8.02;;;15.00;99.90;;;;;;5037906;28;20160;-64
2023/08/06 05:05:28;;;;;;;8.73;7.90;;;15.00;99.90;;;;;;5036158;28;20376;-63
2023/08/06 05:07:56;;;;;;;8.90;7.97;;;15.10;99.90;;;;;;5034139;28;20052;-64
2023/08/06 05:10:21;;;;;;;8.15;7.35;;;15.10;99.90;;;;;;5018416;28;20527;-64
2023/08/06 05:12:47;;;;;;;9.07;8.05;;;15.30;99.90;;;;;;5012619;28;20044;-64
2023/08/06 05:15:13;;;;;;;10.70;8.82;;;15.20;99.90;;;;;;5035439;28;20048;-64
2023/08/06 05:17:38;;;;;;;12.25;9.98;;;15.20;99.90;;;;;;5038468;28;20131;-64
2023/08/06 05:20:04;;;;;;;11.60;10.50;;;15.50;99.90;;;;;;5037610;28;20037;-64
2023/08/06 05:22:30;;;;;;;12.27;11.07;;;15.50;99.90;;;;;;5004237;28;20045;-64
2023/08/06 05:24:56;;;;;;;13.00;11.70;;;15.50;99.90;;;;;;5003669;28;20298;-64
2023/08/06 05:27:21;;;;;;;13.50;12.23;;;15.50;99.90;;;;;;5020276;28;20033;-64
2023/08/06 05:29:48;;;;;;;13.23;11.93;;;15.40;99.90;;;;;;5004357;28;20314;-63
2023/08/06 05:32:13;;;;;;;13.15;11.18;;;15.40;99.90;;;;;;5018499;28;20114;-64
2023/08/06 05:34:41;;;;;;;14.63;12.48;;;15.50;99.90;;;;;;5019550;28;20048;-65
2023/08/06 05:37:07;;;;;;;17.73;13.23;;;15.50;99.90;;;;;;5019138;28;20544;-64
2023/08/06 05:39:32;;;;;;;15.30;13.70;;;15.50;99.90;;;;;;5034901;28;20036;-65
2023/08/06 05:41:58;;;;;;;13.48;12.07;;;15.60;99.90;;;;;;5017020;28;20296;-64
2023/08/06 05:44:24;;;;;;;13.38;12.10;;;15.60;99.90;;;;;;5036700;28;20666;-64
2023/08/06 05:46:50;;;;;;;14.82;13.18;;;15.70;99.90;;;;;;5017079;28;20043;-65
2023/08/06 05:49:15;;;;;;;15.50;14.00;;;15.60;99.90;;;;;;5035410;28;20033;-64
2023/08/06 05:51:41;;;;;;;13.75;12.35;;;15.50;99.90;;;;;;5034614;28;20120;-64
2023/08/06 05:54:07;;;;;;;14.73;13.23;;;15.60;99.90;;;;;;5006344;28;20491;-64
2023/08/06 05:56:33;;;;;;;15.13;13.18;;;15.40;99.90;;;;;;5034338;28;20051;-65
2023/08/06 05:58:58;;;;;;;15.88;13.65;;;15.60;99.90;;;;;;5018550;28;20043;-65
2023/08/06 06:01:24;;;;;;;15.68;13.10;;;15.40;99.90;;;;;;5039062;28;20079;-65
2023/08/06 06:03:50;;;;;;;14.93;12.80;;;15.40;99.90;;;;;;5004090;28;20379;-66
2023/08/06 06:06:16;;;;;;;13.32;12.02;;;15.40;99.90;;;;;;5035353;28;20761;-64
2023/08/06 06:08:42;;;;;;;16.77;11.70;;;15.60;99.90;;;;;;5017877;28;20235;-64
2023/08/06 06:11:07;;;;;;;12.25;10.88;;;15.60;99.90;;;;;;4981504;28;1103089;-64
2023/08/06 06:13:33;;;;;;;12.68;10.95;;;15.70;99.90;;;;;;5037387;28;20049;-64
2023/08/06 06:15:59;;;;;;;13.02;11.00;;;15.70;99.90;;;;;;5018196;28;20487;-64
2023/08/06 06:18:24;;;;;;;12.95;11.52;;;15.80;99.90;;;;;;5038779;28;20060;-64
2023/08/06 06:20:50;;;;;;;12.73;11.45;;;15.80;99.90;;;;;;5045069;28;20346;-63
2023/08/06 06:23:16;;;;;;;13.27;11.05;;;15.70;99.90;;;;;;5053952;28;20135;-62
2023/08/06 06:25:53;;;;;;;13.60;10.63;;;15.80;99.90;;;;;;5049145;28;20048;-62
2023/08/06 06:28:19;;;;;;;12.15;10.98;;;15.80;99.90;;;;;;5052459;28;20044;-63
2023/08/06 06:30:45;;;;;;;12.65;11.55;;;16.00;99.90;;;;;;5048980;28;20409;-64
2023/08/06 06:36:47;;;;;;;10.32;9.23;;;15.90;99.90;;;;;;5052338;28;20041;-64
2023/08/06 06:39:13;;;;;;;9.80;8.80;;;16.00;99.90;;;;;;5053255;28;20053;-65
2023/08/06 06:41:39;;;;;;;11.20;9.88;;;16.10;99.90;;;;;;5056805;28;20043;-64
2023/08/06 06:44:05;;;;;;;10.95;9.80;;;16.10;99.90;;;;;;5039818;28;20076;-63
2023/08/06 06:46:31;;;;;;;10.13;9.13;;;16.10;99.90;;;;;;5051109;28;20045;-63
2023/08/06 06:48:57;;;;;;;12.23;10.50;;;16.20;99.90;;;;;;5052895;28;20037;-65
2023/08/06 06:51:22;;;;;;;11.38;10.27;;;16.20;99.90;;;;;;5033896;28;20204;-63
2023/08/06 06:53:48;;;;;;;10.50;8.45;;;16.40;99.90;;;;;;5050260;28;20132;-63
2023/08/06 06:56:14;;;;;;;10.18;8.63;;;16.50;99.90;;;;;;5033607;28;20052;-64
2023/08/06 06:58:40;;;;;;;9.73;8.82;;;16.60;99.90;;;;;;5033046;28;20184;-64
2023/08/06 07:01:45;;;;;;;9.15;8.23;;;16.60;99.90;;;;;;5033703;28;20510;-64
2023/08/06 07:04:10;;;;;;;8.23;7.50;;;16.80;99.90;;;;;;5055021;28;20465;-64
2023/08/06 07:06:36;;;;;;;8.88;7.78;;;16.80;99.90;;;;;;5054572;28;20041;-64
2023/08/06 07:09:02;;;;;;;8.40;7.63;;;16.90;99.90;;;;;;5054816;28;20048;-64
2023/08/06 07:11:27;;;;;;;7.10;6.45;;;17.10;99.90;;;;;;5052924;28;20140;-64
2023/08/06 07:13:58;;;;;;;9.68;7.65;;;17.30;99.90;;;;;;5034136;28;20047;-64
2023/08/06 07:16:24;;;;;;;7.32;6.50;;;17.40;99.90;;;;;;5053612;28;20053;-64
2023/08/06 07:18:52;;;;;;;7.03;6.18;;;17.50;99.90;;;;;;5051194;28;20044;-64
2023/08/06 07:21:18;;;;;;;6.65;6.00;;;17.80;99.90;;;;;;5051530;28;20045;-63
2023/08/06 07:23:43;;;;;;;7.93;6.47;;;17.90;99.90;;;;;;5054228;28;20052;-64
2023/08/06 07:26:09;;;;;;;6.55;5.78;;;18.20;99.90;;;;;;5047800;28;20044;-64
2023/08/06 07:28:35;;;;;;;6.80;6.10;;;18.30;99.90;;;;;;5051485;28;20070;-64
2023/08/06 07:31:03;;;;;;;5.57;5.10;;;18.60;99.90;;;;;;5033092;28;20098;-63
2023/08/06 07:33:28;;;;;;;6.00;5.28;;;18.90;99.90;;;;;;5058665;28;20407;-63
2023/08/06 07:35:54;;;;;;;5.03;4.53;;;19.00;99.90;;;;;;5034099;28;20234;-63
2023/08/06 07:38:20;;;;;;;5.60;5.10;;;19.10;99.90;;;;;;5048176;28;20047;-63
2023/08/06 07:40:46;;;;;;;5.47;5.00;;;19.10;99.90;;;;;;5051125;28;20045;-63
2023/08/06 07:43:11;;;;;;;5.45;4.93;;;19.20;99.90;;;;;;5038541;28;20094;-62
2023/08/06 07:46:15;;;;;;;5.38;4.78;;;19.10;99.90;;;;;;5053318;28;20048;-62
2023/08/06 07:48:40;;;;;;;4.95;4.45;;;19.20;99.90;;;;;;5053328;28;20040;-64
2023/08/06 07:51:06;;;;;;;4.97;4.15;;;19.40;99.90;;;;;;5054663;28;20118;-63
2023/08/06 07:53:32;;;;;;;4.38;4.07;;;19.40;99.90;;;;;;5015790;28;20044;-62
2023/08/06 07:55:58;;;;;;;4.45;3.95;;;19.60;99.90;;;;;;5027805;28;20200;-63
2023/08/06 07:58:25;;;;;;;4.85;4.35;;;20.00;99.90;;;;;;5037923;28;20198;-64
2023/08/06 08:00:51;;;;;;;4.55;3.83;;;20.00;99.90;;;;;;5019742;28;20326;-63
2023/08/06 08:03:17;;;;;;;4.97;3.83;;;19.90;99.90;;;;;;5016728;28;20787;-63
2023/08/06 08:05:43;;;;;;;4.30;3.90;;;19.80;99.90;;;;;;5034998;28;20040;-63
2023/08/06 08:08:09;;;;;;;3.85;3.38;;;19.80;99.90;;;;;;5039276;28;20119;-62
2023/08/06 08:10:36;;;;;;;5.07;3.10;;;20.30;99.90;;;;;;5034296;28;20479;-62
2023/08/06 08:13:05;;;;;;;3.22;2.92;;;20.70;99.90;;;;;;5036327;28;20047;-63
2023/08/06 08:15:32;;;;;;;4.00;3.10;;;21.00;99.90;;;;;;5034817;28;20447;-63
2023/08/06 08:17:58;;;;;;;2.95;2.50;;;21.20;99.90;;;;;;5033598;28;20039;-63
2023/08/06 08:20:24;;;;;;;3.40;3.00;;;21.50;99.90;;;;;;5034041;28;20498;-63
2023/08/06 08:22:50;;;;;;;4.78;2.75;;;21.90;99.90;;;;;;5033292;28;20080;-63
2023/08/06 08:25:22;;;;;;;3.40;2.80;;;22.20;99.90;;;;;;5038264;28;20145;-63
2023/08/06 08:27:47;;;;;;;3.03;2.30;;;22.60;99.90;;;;;;5018412;28;20041;-63
2023/08/06 08:30:13;;;;;;;4.20;2.20;;;22.90;99.90;;;;;;5036154;28;20072;-63
2023/08/06 08:32:38;;;;;;;1.73;1.63;;;22.80;99.90;;;;;;5016474;28;20391;-63
2023/08/06 08:35:04;;;;;;;2.50;1.80;;;22.50;97.10;;;;;;5031239;28;20049;-64
2023/08/06 08:37:30;;;;;;;2.08;1.60;;;22.50;99.90;;;;;;5021279;28;20156;-63
2023/08/06 08:39:56;;;;;;;3.53;1.95;;;22.60;99.90;;;;;;5036365;28;20160;-63
2023/08/06 08:42:22;;;;;;;2.75;1.70;;;22.60;95.20;;;;;;5018393;28;20044;-63
2023/08/06 08:44:48;;;;;;;2.60;1.30;;;22.50;78.90;;;;;;5034167;28;20256;-64
2023/08/06 08:47:16;;;;;;;1.92;1.52;;;22.70;99.90;;;;;;5015680;28;20288;-64
2023/08/06 08:49:43;;;;;;;1.75;1.25;;;22.70;99.90;;;;;;5037360;28;20041;-63
2023/08/06 08:52:12;;;;;;;2.35;1.10;;;22.70;99.90;;;;;;5034474;28;20037;-64
2023/08/06 08:54:39;;;;;;;1.42;0.82;;;22.90;99.90;;;;;;5033205;28;20329;-65
2023/08/06 08:57:05;;;;;;;1.83;0.88;;;22.60;99.90;;;;;;5035289;28;20044;-64
2023/08/06 08:59:33;;;;;;;1.10;0.68;;;22.70;98.80;;;;;;5032281;28;20041;-64
2023/08/06 09:02:00;;;;;;;1.50;0.88;;;22.60;96.20;;;;;;5034930;28;20043;-64
2023/08/06 09:04:31;;;;;;;1.08;0.90;;;22.70;99.90;;;;;;5038332;28;20041;-65
2023/08/06 09:06:59;;;;;;;1.40;0.90;;;22.70;99.90;;;;;;5017987;28;20041;-64
2023/08/06 09:09:38;;;;;;;1.85;0.90;;;22.80;99.90;;;;;;5017829;28;20895;-64
2023/08/06 09:12:20;;;;;;;2.72;0.57;;;22.70;75.50;;;;;;5033249;28;20491;-63
2023/08/06 09:14:45;;;;;;;2.22;1.00;;;23.10;72.70;;;;;;5042248;28;20051;-63
2023/08/06 09:17:11;;;;;;;1.67;0.50;;;23.20;81.80;;;;;;5017261;28;20417;-64
2023/08/06 09:19:37;;;;;;;1.73;0.88;;;23.20;71.50;;;;;;5034616;28;20041;-64
2023/08/06 09:22:10;;;;;;;3.75;0.80;;;23.20;54.40;;;;;;5031732;28;20040;-64
2023/08/06 09:24:43;;;;;;;1.50;1.00;;;23.30;56.80;;;;;;5034191;28;20247;-64
2023/08/06 09:27:13;;;;;;;1.73;1.00;;;23.30;67.50;;;;;;5033753;28;20047;-63
2023/08/06 09:29:48;;;;;;;2.03;0.88;;;23.40;79.10;;;;;;5034331;28;20044;-64
2023/08/06 09:32:17;;;;;;;1.88;0.90;;;23.50;71.00;;;;;;5033574;28;20045;-64
2023/08/06 09:34:43;;;;;;;2.05;0.70;;;23.70;71.60;;;;;;5018723;28;20075;-64
2023/08/06 09:37:13;;;;;;;1.77;0.70;;;23.30;39.00;;;;;;5029777;28;20045;-65
2023/08/06 09:39:43;;;;;;;1.30;0.70;;;23.10;48.90;;;;;;5030245;28;20536;-64
2023/08/06 09:42:08;;;;;;;1.35;0.63;;;23.20;53.70;;;;;;5031376;28;20045;-64
2023/08/06 09:44:35;;;;;;;1.60;0.50;;;23.10;46.60;;;;;;5030996;28;20048;-64
2023/08/06 09:47:04;;;;;;;1.70;0.40;;;23.00;43.50;;;;;;5014005;28;20132;-65
2023/08/06 09:49:32;;;;;;;1.77;0.40;;;22.80;42.30;;;;;;5014078;28;20325;-64
2023/08/06 09:51:59;;;;;;;2.38;0.40;;;22.80;44.10;;;;;;5046994;28;20127;-66
2023/08/06 09:54:26;;;;;;;0.88;0.40;;;22.90;62.90;;;;;;5031766;28;20136;-65
2023/08/06 09:56:56;;;;;;;1.00;0.40;;;23.00;45.20;;;;;;5014981;28;20120;-64
2023/08/06 09:59:26;;;;;;;1.20;0.40;;;22.80;44.90;;;;;;5022024;28;20106;-64
2023/08/06 10:01:54;;;;;;;0.60;0.40;;;22.90;23.40;;;;;;5049773;28;20834;-64
2023/08/06 10:04:20;;;;;;;4.80;0.50;;;23.20;14.60;;;;;;5026478;28;20036;-63
2023/08/06 10:06:49;;;;;;;3.03;0.40;;;23.50;17.90;;;;;;5033474;28;20049;-64
2023/08/06 10:09:15;;;;;;;0.68;0.30;;;24.10;23.50;;;;;;5031277;28;20095;-64
2023/08/06 10:11:43;;;;;;;1.00;0.40;;;24.70;12.00;;;;;;5020298;28;20067;-64
2023/08/06 10:14:32;;;;;;;1.20;0.30;;;25.00;6.40;;;;;;5037654;28;20238;-64
2023/08/06 10:16:59;;;;;;;1.10;0.30;;;25.40;1.00;;;;;;5038823;28;20366;-62
2023/08/06 10:19:26;;;;;;;0.90;0.32;;;25.60;1.00;;;;;;5042128;28;20169;-65
2023/08/06 10:22:09;;;;;;;1.20;0.40;;;25.30;1.00;;;;;;5035837;28;20111;-64
2023/08/06 10:24:55;;;;;;;1.60;0.50;;;24.90;1.00;;;;;;5052111;28;20253;-63
2023/08/06 10:27:34;;;;;;;0.98;0.35;;;24.10;1.00;;;;;;5023507;28;20044;-65
2023/08/06 10:30:25;;;;;;;0.95;0.30;;;24.10;1.00;;;;;;5037665;28;20051;-66
2023/08/06 10:33:03;;;;;;;0.82;0.30;;;24.10;1.00;;;;;;5038289;28;20144;-65
2023/08/06 10:35:49;;;;;;;0.52;0.30;;;24.20;1.00;;;;;;5030947;28;20068;-64
2023/08/06 10:38:21;;;;;;;0.80;0.40;;;24.50;1.00;;;;;;5035295;28;20052;-65
2023/08/06 10:41:01;;;;;;;0.82;0.38;;;24.60;1.00;;;;;;5046056;28;20113;-66
2023/08/06 10:43:28;;;;;;;1.08;0.40;;;24.40;1.00;;;;;;5036614;28;20136;-65
2023/08/06 10:45:54;;;;;;;2.08;0.30;;;24.40;1.00;;;;;;5019872;28;20037;-65
2023/08/06 10:48:39;;;;;;;1.95;0.40;;;24.50;1.00;;;;;;5041179;28;20037;-65
2023/08/06 10:51:15;;;;;;;1.52;0.32;;;24.60;1.00;;;;;;5034448;28;20059;-64
2023/08/06 10:53:45;;;;;;;0.80;0.30;;;25.00;1.00;;;;;;5018837;28;20272;-64
2023/08/06 10:56:15;;;;;;;1.67;0.30;;;25.20;1.00;;;;;;4989532;28;20037;-64
2023/08/06 10:58:42;;;;;;;0.77;0.30;;;25.60;1.00;;;;;;5015783;28;20229;-64
2023/08/06 11:01:08;;;;;;;0.65;0.40;;;25.80;1.00;;;;;;5014365;28;20469;-64
2023/08/06 11:03:37;;;;;;;0.70;0.40;;;25.80;1.00;;;;;;5035813;28;20040;-65
2023/08/06 11:06:10;;;;;;;1.10;0.20;;;26.10;1.00;;;;;;5038010;28;20052;-65
2023/08/06 11:08:38;;;;;;;1.30;0.30;;;26.30;1.00;;;;;;5050982;28;20232;-65
2023/08/06 11:11:12;;;;;;;1.13;0.30;;;26.20;1.00;;;;;;5033184;28;20064;-64
2023/08/06 11:13:42;;;;;;;1.60;0.28;;;26.20;1.00;;;;;;5051606;28;20049;-64
2023/08/06 11:16:10;;;;;;;0.50;0.30;;;26.20;1.00;;;;;;5052075;28;20403;-65
2023/08/06 11:18:36;;;;;;;1.10;0.30;;;26.30;1.00;;;;;;5052069;28;20052;-65
2023/08/06 11:21:02;;;;;;;1.75;0.35;;;26.40;1.00;;;;;;5043556;28;20252;-65
2023/08/06 11:23:29;;;;;;;0.57;0.25;;;26.70;1.00;;;;;;5045942;28;20040;-63
2023/08/06 11:25:58;;;;;;;1.35;0.32;;;26.50;1.00;;;;;;5046908;28;20045;-65
2023/08/06 11:28:24;;;;;;;1.42;0.32;;;26.30;1.00;;;;;;5065093;28;20083;-66
2023/08/06 11:30:50;;;;;;;1.17;0.30;;;26.20;1.00;;;;;;5049081;28;20048;-64
2023/08/06 11:33:26;;;;;;;1.58;0.20;;;26.00;1.00;;;;;;5045753;28;20049;-65
2023/08/06 11:35:54;;;;;;;3.00;0.30;;;26.20;1.00;;;;;;5046511;28;20041;-64
2023/08/06 11:38:20;;;;;;;0.43;0.20;;;26.30;1.00;;;;;;5046537;28;20123;-66
2023/08/06 11:41:06;;;;;;;0.98;0.30;;;25.80;1.00;;;;;;5044031;28;20526;-65
2023/08/06 11:43:32;;;;;;;0.82;0.20;;;25.50;1.00;;;;;;5048037;28;20677;-63
2023/08/06 11:46:36;;;;;;;0.82;0.30;;;25.40;1.00;;;;;;5049877;28;20175;-65
2023/08/06 11:49:01;;;;;;;0.85;0.30;;;25.00;1.00;;;;;;5058639;28;20041;-66
2023/08/06 11:51:28;;;;;;;1.67;0.30;;;24.70;1.00;;;;;;5036468;28;20048;-65
2023/08/06 11:53:58;;;;;;;0.73;0.20;;;24.80;1.00;;;;;;5045986;28;20495;-65
2023/08/06 11:56:25;;;;;;;1.17;0.20;;;24.70;4.50;;;;;;5059574;28;20494;-65
2023/08/06 11:58:51;;;;;;;0.60;0.20;;;24.90;5.40;;;;;;5066066;28;20486;-64
2023/08/06 12:01:18;;;;;;;0.98;0.22;;;25.00;1.00;;;;;;5047960;28;20051;-64
2023/08/06 12:03:44;;;;;;;0.88;0.20;;;24.90;1.00;;;;;;5036719;28;20049;-65
2023/08/06 12:06:11;;;;;;;0.95;0.20;;;24.60;1.00;;;;;;5015845;28;20041;-65
2023/08/06 12:08:38;;;;;;;2.33;0.30;;;24.20;1.00;;;;;;5042829;28;20049;-66
2023/08/06 12:11:04;;;;;;;0.80;0.30;;;23.90;3.70;;;;;;5032747;28;20154;-66
2023/08/06 12:13:29;;;;;;;1.00;0.30;;;24.00;3.40;;;;;;5015642;28;20692;-65
2023/08/06 12:15:57;;;;;;;1.52;0.30;;;24.20;1.00;;;;;;5037999;28;20037;-65
2023/08/06 12:18:23;;;;;;;0.95;0.30;;;24.40;1.00;;;;;;5033652;28;20076;-64
2023/08/06 12:20:48;;;;;;;0.90;0.40;;;24.60;7.30;;;;;;5018485;28;20164;-66
2023/08/06 12:23:15;;;;;;;0.93;0.30;;;24.40;3.30;;;;;;5016770;28;20284;-66
2023/08/06 12:25:42;;;;;;;0.90;0.30;;;24.70;1.00;;;;;;5027671;28;20033;-67
2023/08/06 12:28:09;;;;;;;1.67;0.25;;;24.60;1.00;;;;;;5015693;28;20043;-65
2023/08/06 12:30:35;;;;;;;1.02;0.30;;;24.60;1.00;;;;;;5012023;28;20203;-66
2023/08/06 12:33:01;;;;;;;1.63;0.30;;;24.30;1.00;;;;;;5015540;28;20041;-65
2023/08/06 12:35:26;;;;;;;0.50;0.20;;;24.20;1.00;;;;;;5038039;28;20299;-65
2023/08/06 12:37:54;;;;;;;1.73;0.30;;;24.10;1.00;;;;;;5033349;28;20083;-64
2023/08/06 12:40:20;;;;;;;1.90;0.30;;;24.10;2.00;;;;;;5020061;28;20041;-65
2023/08/06 12:42:46;;;;;;;1.10;0.30;;;24.10;5.50;;;;;;5036355;28;20445;-66
2023/08/06 12:45:12;;;;;;;2.20;0.40;;;24.10;4.80;;;;;;5014621;28;20219;-65
2023/08/06 12:47:38;;;;;;;2.95;0.40;;;24.20;5.00;;;;;;5017474;28;20163;-65